sensor_id;sensor_type;location;lat;lon;timestamp;pressure;altitude;pressure_sealevel;temperature;humidity
52249;BME280;38541;48.130;8.378;2023-02-18T00:00:26;93755.88;;;8.22;82.17
52249;BME280;38541;48.130;8.378;2023-02-18T00:02:53;93764.34;;;8.24;82.12
52249;BME280;38541;48.130;8.378;2023-02-18T00:05:21;93752.84;;;8.25;81.79
52249;BME280;38541;48.130;8.378;2023-02-18T00:07:48;93759.09;;;8.24;82.07
52249;BME280;38541;48.130;8.378;2023-02-18T00:10:15;93754.19;;;8.28;81.69
52249;BME280;38541;48.130;8.378;2023-02-18T00:12:41;93751.38;;;8.30;81.59
52249;BME280;38541;48.130;8.378;2023-02-18T00:15:08;93751.25;;;8.24;81.89
52249;BME280;38541;48.130;8.378;2023-02-18T00:17:35;93740.63;;;8.19;81.86
52249;BME280;38541;48.130;8.378;2023-02-18T00:20:02;93735.38;;;8.19;81.75
52249;BME280;38541;48.130;8.378;2023-02-18T00:22:29;93741.97;;;8.10;82.21
52249;BME280;38541;48.130;8.378;2023-02-18T00:24:55;93726.25;;;8.10;82.46
52249;BME280;38541;48.130;8.378;2023-02-18T00:27:22;93724.66;;;8.09;82.05
52249;BME280;38541;48.130;8.378;2023-02-18T00:29:48;93727.47;;;8.07;82.46
52249;BME280;38541;48.130;8.378;2023-02-18T00:32:15;93739.63;;;8.02;82.34
52249;BME280;38541;48.130;8.378;2023-02-18T00:34:41;93728.72;;;8.05;82.06
52249;BME280;38541;48.130;8.378;2023-02-18T00:37:08;93716.53;;;7.98;82.16
52249;BME280;38541;48.130;8.378;2023-02-18T00:39:34;93720.03;;;7.92;82.04
52249;BME280;38541;48.130;8.378;2023-02-18T00:42:00;93715.66;;;7.86;82.21
52249;BME280;38541;48.130;8.378;2023-02-18T00:44:27;93710.72;;;7.96;81.86
52249;BME280;38541;48.130;8.378;2023-02-18T00:46:55;93710.72;;;7.96;81.35
52249;BME280;38541;48.130;8.378;2023-02-18T00:49:22;93704.47;;;7.97;81.70
52249;BME280;38541;48.130;8.378;2023-02-18T00:51:48;93704.59;;;8.03;81.69
52249;BME280;38541;48.130;8.378;2023-02-18T00:54:15;93704.59;;;8.03;81.74
52249;BME280;38541;48.130;8.378;2023-02-18T00:56:42;93699.72;;;8.06;81.09
52249;BME280;38541;48.130;8.378;2023-02-18T00:59:09;93699.28;;;8.09;81.48
52249;BME280;38541;48.130;8.378;2023-02-18T01:01:36;93704.16;;;8.06;81.18
52249;BME280;38541;48.130;8.378;2023-02-18T01:04:02;93703.03;;;8.13;81.18
52249;BME280;38541;48.130;8.378;2023-02-18T01:06:30;93696.06;;;8.07;80.82
52249;BME280;38541;48.130;8.378;2023-02-18T01:08:56;93706.34;;;8.09;81.01
52249;BME280;38541;48.130;8.378;2023-02-18T01:11:23;93694.03;;;8.09;80.67
52249;BME280;38541;48.130;8.378;2023-02-18T01:13:50;93693.38;;;8.14;80.89
52249;BME280;38541;48.130;8.378;2023-02-18T01:16:17;93695.28;;;8.07;80.90
52249;BME280;38541;48.130;8.378;2023-02-18T01:18:45;93694.69;;;8.05;80.94
52249;BME280;38541;48.130;8.378;2023-02-18T01:21:11;93686.41;;;8.08;81.03
52249;BME280;38541;48.130;8.378;2023-02-18T01:23:39;93684.00;;;8.06;80.91
52249;BME280;38541;48.130;8.378;2023-02-18T01:26:07;93674.44;;;8.00;81.36
52249;BME280;38541;48.130;8.378;2023-02-18T01:28:36;93685.25;;;8.04;80.97
52249;BME280;38541;48.130;8.378;2023-02-18T01:31:07;93681.97;;;8.08;80.76
52249;BME280;38541;48.130;8.378;2023-02-18T01:33:34;93689.25;;;8.06;80.63
52249;BME280;38541;48.130;8.378;2023-02-18T01:36:00;93675.81;;;8.03;80.37
52249;BME280;38541;48.130;8.378;2023-02-18T01:38:27;93674.34;;;8.07;80.35
52249;BME280;38541;48.130;8.378;2023-02-18T01:40:53;93670.72;;;8.08;79.99
52249;BME280;38541;48.130;8.378;2023-02-18T01:43:21;93677.19;;;8.05;80.62
52249;BME280;38541;48.130;8.378;2023-02-18T01:46:05;93679.59;;;8.07;80.07
52249;BME280;38541;48.130;8.378;2023-02-18T01:48:37;93674.78;;;8.04;80.13
52249;BME280;38541;48.130;8.378;2023-02-18T01:51:16;93668.06;;;7.96;80.30
52249;BME280;38541;48.130;8.378;2023-02-18T01:56:23;93665.66;;;7.94;80.33
52249;BME280;38541;48.130;8.378;2023-02-18T01:58:51;93662.47;;;7.92;80.66
52249;BME280;38541;48.130;8.378;2023-02-18T02:01:19;93663.03;;;7.94;80.41
52249;BME280;38541;48.130;8.378;2023-02-18T02:03:46;93663.25;;;7.93;80.44
52249;BME280;38541;48.130;8.378;2023-02-18T02:06:17;93656.78;;;7.95;80.13
52249;BME280;38541;48.130;8.378;2023-02-18T02:08:52;93647.34;;;7.94;80.04
52249;BME280;38541;48.130;8.378;2023-02-18T02:11:28;93664.75;;;8.00;79.76
52249;BME280;38541;48.130;8.378;2023-02-18T02:14:15;93651.91;;;7.99;79.64
52249;BME280;38541;48.130;8.378;2023-02-18T02:17:07;93653.59;;;7.93;79.92
52249;BME280;38541;48.130;8.378;2023-02-18T02:26:02;93647.47;;;7.99;79.30
52249;BME280;38541;48.130;8.378;2023-02-18T02:31:59;93639.72;;;7.93;79.41
52249;BME280;38541;48.130;8.378;2023-02-18T02:43:09;93644.97;;;8.05;79.16
52249;BME280;38541;48.130;8.378;2023-02-18T02:45:53;93646.94;;;8.09;78.65
52249;BME280;38541;48.130;8.378;2023-02-18T02:48:34;93647.28;;;8.13;79.04
52249;BME280;38541;48.130;8.378;2023-02-18T02:51:08;93643.28;;;8.10;78.87
52249;BME280;38541;48.130;8.378;2023-02-18T02:53:39;93649.09;;;8.12;78.56
52249;BME280;38541;48.130;8.378;2023-02-18T02:56:13;93652.53;;;8.13;78.94
52249;BME280;38541;48.130;8.378;2023-02-18T02:58:41;93651.81;;;8.06;78.69
52249;BME280;38541;48.130;8.378;2023-02-18T03:01:14;93648.19;;;8.07;79.15
52249;BME280;38541;48.130;8.378;2023-02-18T03:07:10;93644.75;;;8.06;79.67
52249;BME280;38541;48.130;8.378;2023-02-18T03:09:45;93644.09;;;8.11;79.42
52249;BME280;38541;48.130;8.378;2023-02-18T03:12:25;93640.47;;;8.12;79.34
52249;BME280;38541;48.130;8.378;2023-02-18T03:17:36;93638.06;;;8.22;78.81
52249;BME280;38541;48.130;8.378;2023-02-18T03:20:09;93634.44;;;8.23;79.34
52249;BME280;38541;48.130;8.378;2023-02-18T03:22:43;93638.66;;;8.24;79.36
52249;BME280;38541;48.130;8.378;2023-02-18T03:25:12;93636.94;;;8.30;79.09
52249;BME280;38541;48.130;8.378;2023-02-18T03:27:43;93634.22;;;8.25;79.29
52249;BME280;38541;48.130;8.378;2023-02-18T03:32:48;93631.81;;;8.23;79.05
52249;BME280;38541;48.130;8.378;2023-02-18T03:35:17;93627.50;;;8.17;79.67
52249;BME280;38541;48.130;8.378;2023-02-18T03:37:47;93624.66;;;8.19;79.55
52249;BME280;38541;48.130;8.378;2023-02-18T03:40:17;93624.19;;;8.22;79.42
52249;BME280;38541;48.130;8.378;2023-02-18T03:42:43;93627.94;;;8.14;79.86
52249;BME280;38541;48.130;8.378;2023-02-18T03:45:10;93625.78;;;8.11;79.82
52249;BME280;38541;48.130;8.378;2023-02-18T03:47:39;93626.22;;;8.08;79.88
52249;BME280;38541;48.130;8.378;2023-02-18T03:50:06;93614.16;;;8.07;79.82
52249;BME280;38541;48.130;8.378;2023-02-18T03:52:34;93618.72;;;8.11;79.56
52249;BME280;38541;48.130;8.378;2023-02-18T03:55:04;93618.72;;;8.11;79.22
52249;BME280;38541;48.130;8.378;2023-02-18T03:57:31;93621.31;;;8.11;79.47
52249;BME280;38541;48.130;8.378;2023-02-18T03:59:58;93620.75;;;8.09;79.64
52249;BME280;38541;48.130;8.378;2023-02-18T04:02:24;93620.31;;;8.12;79.75
52249;BME280;38541;48.130;8.378;2023-02-18T04:04:51;93616.34;;;8.10;79.83
52249;BME280;38541;48.130;8.378;2023-02-18T04:07:17;93622.13;;;8.12;80.11
52249;BME280;38541;48.130;8.378;2023-02-18T04:09:44;93626.34;;;8.13;80.14
52249;BME280;38541;48.130;8.378;2023-02-18T04:12:10;93621.13;;;8.13;80.06
52249;BME280;38541;48.130;8.378;2023-02-18T04:14:36;93622.81;;;8.19;79.74
52249;BME280;38541;48.130;8.378;2023-02-18T04:17:03;93626.56;;;8.11;80.22
52249;BME280;38541;48.130;8.378;2023-02-18T04:19:29;93623.72;;;8.13;80.07
52249;BME280;38541;48.130;8.378;2023-02-18T04:21:56;93622.81;;;8.19;79.90
52249;BME280;38541;48.130;8.378;2023-02-18T04:24:22;93615.53;;;8.21;79.68
52249;BME280;38541;48.130;8.378;2023-02-18T04:26:49;93621.94;;;8.25;79.51
52249;BME280;38541;48.130;8.378;2023-02-18T04:29:15;93619.19;;;8.32;79.26
52249;BME280;38541;48.130;8.378;2023-02-18T04:31:41;93618.88;;;8.28;78.89
52249;BME280;38541;48.130;8.378;2023-02-18T04:34:08;93618.06;;;8.28;78.93
52249;BME280;38541;48.130;8.378;2023-02-18T04:36:34;93619.66;;;8.29;78.75
52249;BME280;38541;48.130;8.378;2023-02-18T04:39:01;93611.59;;;8.31;79.20
52249;BME280;38541;48.130;8.378;2023-02-18T04:41:27;93604.97;;;8.28;79.16
52249;BME280;38541;48.130;8.378;2023-02-18T04:43:54;93601.69;;;8.33;79.23
52249;BME280;38541;48.130;8.378;2023-02-18T04:46:20;93606.34;;;8.31;79.03
52249;BME280;38541;48.130;8.378;2023-02-18T04:48:47;93605.63;;;8.23;79.69
52249;BME280;38541;48.130;8.378;2023-02-18T04:51:13;93597.34;;;8.26;79.46
52249;BME280;38541;48.130;8.378;2023-02-18T04:53:40;93592.34;;;8.25;79.32
52249;BME280;38541;48.130;8.378;2023-02-18T04:56:06;93602.91;;;8.18;79.46
52249;BME280;38541;48.130;8.378;2023-02-18T04:58:33;93592.78;;;8.22;79.80
52249;BME280;38541;48.130;8.378;2023-02-18T05:01:01;93592.06;;;8.14;79.54
52249;BME280;38541;48.130;8.378;2023-02-18T05:03:29;93582.41;;;8.15;79.32
52249;BME280;38541;48.130;8.378;2023-02-18T05:05:56;93589.25;;;8.16;79.49
52249;BME280;38541;48.130;8.378;2023-02-18T05:08:23;93587.19;;;8.18;79.47
52249;BME280;38541;48.130;8.378;2023-02-18T05:10:49;93588.00;;;8.19;79.04
52249;BME280;38541;48.130;8.378;2023-02-18T05:13:15;93607.69;;;8.21;78.90
52249;BME280;38541;48.130;8.378;2023-02-18T05:15:42;93593.34;;;8.12;79.60
52249;BME280;38541;48.130;8.378;2023-02-18T05:18:09;93612.69;;;8.11;79.60
52249;BME280;38541;48.130;8.378;2023-02-18T05:20:35;93599.72;;;8.16;79.46
52249;BME280;38541;48.130;8.378;2023-02-18T05:23:02;93599.94;;;8.14;79.07
52249;BME280;38541;48.130;8.378;2023-02-18T05:25:28;93594.47;;;8.16;78.89
52249;BME280;38541;48.130;8.378;2023-02-18T05:27:54;93582.06;;;8.11;79.47
52249;BME280;38541;48.130;8.378;2023-02-18T05:30:21;93582.31;;;8.10;79.21
52249;BME280;38541;48.130;8.378;2023-02-18T05:32:47;93590.16;;;8.10;79.08
52249;BME280;38541;48.130;8.378;2023-02-18T05:35:14;93598.13;;;8.15;78.95
52249;BME280;38541;48.130;8.378;2023-02-18T05:37:40;93593.81;;;8.21;78.88
52249;BME280;38541;48.130;8.378;2023-02-18T05:40:07;93621.13;;;8.13;78.90
52249;BME280;38541;48.130;8.378;2023-02-18T05:42:33;93594.25;;;8.06;79.53
52249;BME280;38541;48.130;8.378;2023-02-18T05:45:00;93592.78;;;8.10;79.64
52249;BME280;38541;48.130;8.378;2023-02-18T05:47:26;93578.09;;;8.09;80.00
52249;BME280;38541;48.130;8.378;2023-02-18T05:49:53;93594.13;;;8.12;79.45
52249;BME280;38541;48.130;8.378;2023-02-18T05:52:21;93589.13;;;8.11;79.68
52249;BME280;38541;48.130;8.378;2023-02-18T05:54:47;93595.41;;;8.10;79.37
52249;BME280;38541;48.130;8.378;2023-02-18T05:57:14;93582.31;;;8.10;79.30
52249;BME280;38541;48.130;8.378;2023-02-18T05:59:41;93581.16;;;8.06;79.58
52249;BME280;38541;48.130;8.378;2023-02-18T06:02:07;93570.94;;;8.16;79.34
52249;BME280;38541;48.130;8.378;2023-02-18T06:04:34;93578.09;;;8.09;78.58
52249;BME280;38541;48.130;8.378;2023-02-18T06:07:00;93573.31;;;8.06;78.92
52249;BME280;38541;48.130;8.378;2023-02-18T06:09:26;93582.16;;;8.05;78.12
52249;BME280;38541;48.130;8.378;2023-02-18T06:11:53;93578.88;;;8.09;77.99
52249;BME280;38541;48.130;8.378;2023-02-18T06:14:19;93570.00;;;8.10;77.89
52249;BME280;38541;48.130;8.378;2023-02-18T06:16:46;93571.84;;;8.10;77.89
52249;BME280;38541;48.130;8.378;2023-02-18T06:19:12;93574.66;;;8.08;77.30
52249;BME280;38541;48.130;8.378;2023-02-18T06:21:39;93569.22;;;8.10;77.55
52249;BME280;38541;48.130;8.378;2023-02-18T06:24:05;93575.13;;;8.05;76.81
52249;BME280;38541;48.130;8.378;2023-02-18T06:26:32;93576.94;;;8.05;76.97
52249;BME280;38541;48.130;8.378;2023-02-18T06:28:59;93568.75;;;8.01;76.63
52249;BME280;38541;48.130;8.378;2023-02-18T06:31:25;93558.50;;;7.99;77.02
52249;BME280;38541;48.130;8.378;2023-02-18T06:33:52;93556.91;;;7.98;76.78
52249;BME280;38541;48.130;8.378;2023-02-18T06:36:19;93565.31;;;8.00;76.77
52249;BME280;38541;48.130;8.378;2023-02-18T06:38:45;93571.59;;;7.99;76.76
52249;BME280;38541;48.130;8.378;2023-02-18T06:41:13;93568.19;;;7.99;76.36
52249;BME280;38541;48.130;8.378;2023-02-18T06:43:39;93571.09;;;7.91;75.88
52249;BME280;38541;48.130;8.378;2023-02-18T06:46:06;93571.19;;;7.84;76.13
52249;BME280;38541;48.130;8.378;2023-02-18T06:48:33;93552.19;;;7.77;76.68
52249;BME280;38541;48.130;8.378;2023-02-18T06:50:59;93560.75;;;7.84;76.80
52249;BME280;38541;48.130;8.378;2023-02-18T06:53:26;93562.34;;;7.85;76.57
52249;BME280;38541;48.130;8.378;2023-02-18T06:55:52;93573.81;;;7.84;76.62
52249;BME280;38541;48.130;8.378;2023-02-18T06:58:19;93564.72;;;7.87;76.68
52249;BME280;38541;48.130;8.378;2023-02-18T07:00:45;93569.31;;;7.91;76.86
52249;BME280;38541;48.130;8.378;2023-02-18T07:03:13;93568.63;;;7.96;77.19
52249;BME280;38541;48.130;8.378;2023-02-18T07:05:40;93561.94;;;8.00;76.73
52249;BME280;38541;48.130;8.378;2023-02-18T07:08:08;93564.09;;;8.03;76.44
52249;BME280;38541;48.130;8.378;2023-02-18T07:10:35;93560.53;;;7.97;77.05
52249;BME280;38541;48.130;8.378;2023-02-18T07:13:01;93556.91;;;7.98;77.45
52249;BME280;38541;48.130;8.378;2023-02-18T07:15:28;93560.34;;;7.99;77.09
52249;BME280;38541;48.130;8.378;2023-02-18T07:17:54;93550.34;;;8.08;77.45
52249;BME280;38541;48.130;8.378;2023-02-18T07:20:21;93553.97;;;8.07;77.60
52249;BME280;38541;48.130;8.378;2023-02-18T07:22:48;93555.13;;;8.11;77.57
52249;BME280;38541;48.130;8.378;2023-02-18T07:25:15;93561.94;;;8.12;77.50
52249;BME280;38541;48.130;8.378;2023-02-18T07:27:41;93557.47;;;8.12;77.55
52249;BME280;38541;48.130;8.378;2023-02-18T07:30:08;93564.91;;;8.16;77.41
52249;BME280;38541;48.130;8.378;2023-02-18T07:32:35;93565.13;;;8.14;77.55
52249;BME280;38541;48.130;8.378;2023-02-18T07:35:02;93561.28;;;8.17;76.83
52249;BME280;38541;48.130;8.378;2023-02-18T07:37:29;93567.84;;;8.19;77.40
52249;BME280;38541;48.130;8.378;2023-02-18T07:39:55;93558.53;;;8.23;76.86
52249;BME280;38541;48.130;8.378;2023-02-18T07:42:22;93570.16;;;8.27;76.75
52249;BME280;38541;48.130;8.378;2023-02-18T07:44:48;93578.69;;;8.35;76.39
52249;BME280;38541;48.130;8.378;2023-02-18T07:47:16;93573.78;;;8.26;76.32
52249;BME280;38541;48.130;8.378;2023-02-18T07:49:45;93573.00;;;8.38;76.19
52249;BME280;38541;48.130;8.378;2023-02-18T07:52:13;93574.13;;;8.42;75.71
52249;BME280;38541;48.130;8.378;2023-02-18T07:54:40;93567.91;;;8.55;75.93
52249;BME280;38541;48.130;8.378;2023-02-18T07:57:07;93577.19;;;8.39;75.74
52249;BME280;38541;48.130;8.378;2023-02-18T07:59:34;93573.44;;;8.47;76.12
52249;BME280;38541;48.130;8.378;2023-02-18T08:02:00;93585.31;;;8.37;76.23
52249;BME280;38541;48.130;8.378;2023-02-18T08:04:28;93576.75;;;8.42;75.89
52249;BME280;38541;48.130;8.378;2023-02-18T08:06:54;93569.72;;;8.54;76.45
52249;BME280;38541;48.130;8.378;2023-02-18T08:09:21;93580.66;;;8.51;75.98
52249;BME280;38541;48.130;8.378;2023-02-18T08:11:47;93583.06;;;8.53;75.18
52249;BME280;38541;48.130;8.378;2023-02-18T08:14:14;93592.50;;;8.54;75.37
52249;BME280;38541;48.130;8.378;2023-02-18T08:16:40;93582.94;;;8.60;75.48
52249;BME280;38541;48.130;8.378;2023-02-18T08:19:07;93590.44;;;8.68;75.46
52249;BME280;38541;48.130;8.378;2023-02-18T08:21:33;93630.06;;;8.60;75.42
52249;BME280;38541;48.130;8.378;2023-02-18T08:24:00;93589.91;;;8.54;75.95
52249;BME280;38541;48.130;8.378;2023-02-18T08:26:26;93573.94;;;8.67;75.58
52249;BME280;38541;48.130;8.378;2023-02-18T08:28:53;93588.88;;;8.67;75.41
52249;BME280;38541;48.130;8.378;2023-02-18T08:31:25;93582.25;;;8.76;75.10
52249;BME280;38541;48.130;8.378;2023-02-18T08:33:53;93588.28;;;8.77;74.85
52249;BME280;38541;48.130;8.378;2023-02-18T08:36:20;93585.66;;;8.77;74.76
52249;BME280;38541;48.130;8.378;2023-02-18T08:38:47;93589.53;;;8.74;74.90
52249;BME280;38541;48.130;8.378;2023-02-18T08:41:13;93594.22;;;8.72;74.95
52249;BME280;38541;48.130;8.378;2023-02-18T08:43:41;93597.50;;;8.67;75.32
52249;BME280;38541;48.130;8.378;2023-02-18T08:46:08;93585.88;;;8.75;75.08
52249;BME280;38541;48.130;8.378;2023-02-18T08:48:41;93590.66;;;8.78;74.86
52249;BME280;38541;48.130;8.378;2023-02-18T08:51:19;93588.84;;;8.79;74.89
52249;BME280;38541;48.130;8.378;2023-02-18T08:53:47;93587.94;;;8.85;74.71
52249;BME280;38541;48.130;8.378;2023-02-18T08:56:14;93584.06;;;8.88;74.40
52249;BME280;38541;48.130;8.378;2023-02-18T08:58:42;93597.81;;;8.95;74.61
52249;BME280;38541;48.130;8.378;2023-02-18T09:01:11;93593.03;;;8.92;74.19
52249;BME280;38541;48.130;8.378;2023-02-18T09:03:38;93596.13;;;8.89;75.05
52249;BME280;38541;48.130;8.378;2023-02-18T09:06:05;93583.13;;;8.94;74.66
52249;BME280;38541;48.130;8.378;2023-02-18T09:08:31;93596.34;;;8.99;74.52
52249;BME280;38541;48.130;8.378;2023-02-18T09:11:00;93579.91;;;9.04;74.42
52249;BME280;38541;48.130;8.378;2023-02-18T09:13:27;93579.78;;;9.10;74.61
52249;BME280;38541;48.130;8.378;2023-02-18T09:16:00;93576.03;;;9.18;73.76
52249;BME280;38541;48.130;8.378;2023-02-18T09:18:29;93583.75;;;9.25;73.41
52249;BME280;38541;48.130;8.378;2023-02-18T09:20:56;93582.41;;;9.10;73.37
52249;BME280;38541;48.130;8.378;2023-02-18T09:23:25;93599.63;;;9.06;73.78
52249;BME280;38541;48.130;8.378;2023-02-18T09:25:52;93586.06;;;9.09;73.60
52249;BME280;38541;48.130;8.378;2023-02-18T09:28:18;93582.28;;;9.17;73.71
52249;BME280;38541;48.130;8.378;2023-02-18T09:30:45;93604.88;;;9.06;74.09
52249;BME280;38541;48.130;8.378;2023-02-18T09:33:12;93591.09;;;8.99;74.19
52249;BME280;38541;48.130;8.378;2023-02-18T09:35:40;93583.44;;;9.09;74.16
52249;BME280;38541;48.130;8.378;2023-02-18T09:38:09;93578.19;;;9.09;73.60
52249;BME280;38541;48.130;8.378;2023-02-18T09:40:38;93586.63;;;9.11;73.27
52249;BME280;38541;48.130;8.378;2023-02-18T09:43:05;93577.28;;;9.04;73.13
52249;BME280;38541;48.130;8.378;2023-02-18T09:45:32;93579.19;;;9.20;73.43
52249;BME280;38541;48.130;8.378;2023-02-18T09:48:00;93590.25;;;9.22;72.99
52249;BME280;38541;48.130;8.378;2023-02-18T09:50:30;93598.97;;;9.11;72.33
52249;BME280;38541;48.130;8.378;2023-02-18T09:52:58;93584.34;;;9.15;72.60
52249;BME280;38541;48.130;8.378;2023-02-18T09:55:34;93588.66;;;9.21;72.29
52249;BME280;38541;48.130;8.378;2023-02-18T09:58:15;93589.00;;;9.25;72.07
52249;BME280;38541;48.130;8.378;2023-02-18T10:00:48;93578.34;;;9.44;71.63
52249;BME280;38541;48.130;8.378;2023-02-18T10:03:20;93595.59;;;9.39;71.73
52249;BME280;38541;48.130;8.378;2023-02-18T10:06:00;93580.50;;;9.47;71.53
52249;BME280;38541;48.130;8.378;2023-02-18T10:08:34;93568.16;;;9.76;71.06
52249;BME280;38541;48.130;8.378;2023-02-18T10:11:01;93561.75;;;9.84;70.37
52249;BME280;38541;48.130;8.378;2023-02-18T10:13:30;93572.28;;;9.72;70.09
52249;BME280;38541;48.130;8.378;2023-02-18T10:15:57;93556.84;;;9.76;70.01
52249;BME280;38541;48.130;8.378;2023-02-18T10:18:25;93557.19;;;9.79;70.25
52249;BME280;38541;48.130;8.378;2023-02-18T10:20:57;93566.97;;;9.67;70.20
52249;BME280;38541;48.130;8.378;2023-02-18T10:23:27;93565.50;;;9.30;71.24
52249;BME280;38541;48.130;8.378;2023-02-18T10:25:56;93562.03;;;9.41;71.24
52249;BME280;38541;48.130;8.378;2023-02-18T10:28:25;93572.72;;;9.52;71.14
52249;BME280;38541;48.130;8.378;2023-02-18T10:30:59;93550.59;;;9.48;71.31
52249;BME280;38541;48.130;8.378;2023-02-18T10:33:33;93562.09;;;9.59;71.00
52249;BME280;38541;48.130;8.378;2023-02-18T10:39:15;93563.81;;;9.53;70.24
52249;BME280;38541;48.130;8.378;2023-02-18T10:44:51;93542.34;;;9.56;69.96
52249;BME280;38541;48.130;8.378;2023-02-18T10:50:10;93535.56;;;9.72;69.91
52249;BME280;38541;48.130;8.378;2023-02-18T10:52:45;93564.84;;;9.81;69.36
52249;BME280;38541;48.130;8.378;2023-02-18T10:55:14;93556.41;;;9.79;69.21
52249;BME280;38541;48.130;8.378;2023-02-18T10:57:49;93551.44;;;9.65;69.70
52249;BME280;38541;48.130;8.378;2023-02-18T11:00:20;93580.59;;;9.81;69.46
52249;BME280;38541;48.130;8.378;2023-02-18T11:03:22;93540.72;;;9.67;68.68
52249;BME280;38541;48.130;8.378;2023-02-18T11:05:52;93574.22;;;9.77;68.63
52249;BME280;38541;48.130;8.378;2023-02-18T11:08:27;93567.81;;;9.73;68.69
52249;BME280;38541;48.130;8.378;2023-02-18T11:10:55;93572.78;;;9.86;68.44
52249;BME280;38541;48.130;8.378;2023-02-18T11:13:25;93552.44;;;9.93;68.19
52249;BME280;38541;48.130;8.378;2023-02-18T11:16:01;93566.38;;;10.11;67.47
52249;BME280;38541;48.130;8.378;2023-02-18T11:18:36;93591.59;;;10.12;66.43
52249;BME280;38541;48.130;8.378;2023-02-18T11:21:17;93548.56;;;10.30;67.15
52249;BME280;38541;48.130;8.378;2023-02-18T11:23:49;93562.66;;;10.24;66.39
52249;BME280;38541;48.130;8.378;2023-02-18T11:26:27;93554.81;;;10.12;66.71
52249;BME280;38541;48.130;8.378;2023-02-18T11:28:59;93558.69;;;10.55;66.18
52249;BME280;38541;48.130;8.378;2023-02-18T11:31:35;93568.69;;;10.59;64.44
52249;BME280;38541;48.130;8.378;2023-02-18T11:34:05;93572.84;;;10.54;64.92
52249;BME280;38541;48.130;8.378;2023-02-18T11:36:34;93546.91;;;10.41;64.76
52249;BME280;38541;48.130;8.378;2023-02-18T11:39:03;93552.38;;;10.56;64.78
52249;BME280;38541;48.130;8.378;2023-02-18T11:41:36;93537.13;;;10.76;63.49
52249;BME280;38541;48.130;8.378;2023-02-18T11:44:15;93541.72;;;10.85;63.73
52249;BME280;38541;48.130;8.378;2023-02-18T11:49:24;93521.28;;;11.37;62.73
52249;BME280;38541;48.130;8.378;2023-02-18T11:51:51;93534.22;;;11.66;61.14
52249;BME280;38541;48.130;8.378;2023-02-18T11:54:24;93526.91;;;11.24;61.38
52249;BME280;38541;48.130;8.378;2023-02-18T11:57:01;93529.50;;;11.19;62.22
52249;BME280;38541;48.130;8.378;2023-02-18T11:59:31;93520.97;;;11.34;62.32
52249;BME280;38541;48.130;8.378;2023-02-18T12:02:51;93511.84;;;11.41;61.85
52249;BME280;38541;48.130;8.378;2023-02-18T12:05:03;93507.25;;;11.87;61.55
52249;BME280;38541;48.130;8.378;2023-02-18T12:13:16;93519.03;;;11.79;60.26
52249;BME280;38541;48.130;8.378;2023-02-18T12:16:08;93498.94;;;11.67;60.75
52249;BME280;38541;48.130;8.378;2023-02-18T12:18:53;93507.28;;;11.92;60.25
52249;BME280;38541;48.130;8.378;2023-02-18T12:21:35;93519.59;;;11.81;60.02
52249;BME280;38541;48.130;8.378;2023-02-18T12:24:21;93509.94;;;11.92;59.65
52249;BME280;38541;48.130;8.378;2023-02-18T12:27:21;93503.16;;;11.68;60.57
52249;BME280;38541;48.130;8.378;2023-02-18T12:38:15;93487.88;;;11.10;61.72
52249;BME280;38541;48.130;8.378;2023-02-18T12:41:13;93499.84;;;11.01;62.45
52249;BME280;38541;48.130;8.378;2023-02-18T12:43:54;93495.44;;;11.07;62.32
52249;BME280;38541;48.130;8.378;2023-02-18T12:49:09;93501.38;;;10.97;62.82
52249;BME280;38541;48.130;8.378;2023-02-18T12:52:11;93514.56;;;10.80;63.09
52249;BME280;38541;48.130;8.378;2023-02-18T12:58:17;93508.03;;;10.82;62.59
52249;BME280;38541;48.130;8.378;2023-02-18T13:03:44;93500.28;;;10.93;63.26
52249;BME280;38541;48.130;8.378;2023-02-18T13:06:41;93508.03;;;10.82;62.78
52249;BME280;38541;48.130;8.378;2023-02-18T13:14:50;93487.97;;;11.21;61.88
52249;BME280;38541;48.130;8.378;2023-02-18T13:17:25;93465.97;;;11.60;61.26
52249;BME280;38541;48.130;8.378;2023-02-18T13:19:58;93457.41;;;11.75;60.94
52249;BME280;38541;48.130;8.378;2023-02-18T13:22:28;93468.25;;;12.11;58.80
52249;BME280;38541;48.130;8.378;2023-02-18T13:24:57;93476.38;;;11.77;58.94
52249;BME280;38541;48.130;8.378;2023-02-18T13:27:45;93454.81;;;11.80;59.94
52249;BME280;38541;48.130;8.378;2023-02-18T13:30:24;93450.41;;;12.23;58.60
52249;BME280;38541;48.130;8.378;2023-02-18T13:35:54;93471.09;;;11.44;59.67
52249;BME280;38541;48.130;8.378;2023-02-18T13:41:00;93447.75;;;10.98;61.59
52249;BME280;38541;48.130;8.378;2023-02-18T13:54:11;93448.44;;;10.66;62.90
52249;BME280;38541;48.130;8.378;2023-02-18T13:56:44;93438.06;;;10.76;62.99
52249;BME280;38541;48.130;8.378;2023-02-18T13:59:18;93440.31;;;10.90;62.92
52249;BME280;38541;48.130;8.378;2023-02-18T14:01:47;93433.75;;;10.70;63.41
52249;BME280;38541;48.130;8.378;2023-02-18T14:09:44;93446.97;;;10.53;63.21
52249;BME280;38541;48.130;8.378;2023-02-18T14:25:54;93451.16;;;10.71;62.98
52249;BME280;38541;48.130;8.378;2023-02-18T14:31:29;93447.81;;;10.59;63.68
52249;BME280;38541;48.130;8.378;2023-02-18T14:36:36;93423.19;;;10.87;63.08
52249;BME280;38541;48.130;8.378;2023-02-18T14:47:19;93418.97;;;10.86;62.77
52249;BME280;38541;48.130;8.378;2023-02-18T14:49:58;93429.16;;;11.05;62.54
52249;BME280;38541;48.130;8.378;2023-02-18T14:52:31;93427.16;;;10.90;63.13
52249;BME280;38541;48.130;8.378;2023-02-18T14:55:04;93423.69;;;10.84;63.42
52249;BME280;38541;48.130;8.378;2023-02-18T14:57:45;93419.41;;;10.78;63.45
52249;BME280;38541;48.130;8.378;2023-02-18T15:00:22;93425.56;;;10.89;63.36
52249;BME280;38541;48.130;8.378;2023-02-18T15:02:51;93434.19;;;10.84;63.02
52249;BME280;38541;48.130;8.378;2023-02-18T15:05:23;93419.28;;;10.90;62.93
52249;BME280;38541;48.130;8.378;2023-02-18T15:08:01;93427.56;;;11.59;62.82
52249;BME280;38541;48.130;8.378;2023-02-18T15:10:48;93428.19;;;11.44;61.05
52249;BME280;38541;48.130;8.378;2023-02-18T15:13:22;93429.78;;;11.45;61.07
52249;BME280;38541;48.130;8.378;2023-02-18T15:15:53;93427.72;;;11.19;61.32
52249;BME280;38541;48.130;8.378;2023-02-18T15:18:57;93421.91;;;11.17;61.91
52249;BME280;38541;48.130;8.378;2023-02-18T15:21:32;93431.44;;;10.96;62.03
52249;BME280;38541;48.130;8.378;2023-02-18T15:24:26;93424.09;;;10.98;62.14